I74 weather

Grimes Field
Urbana, Ohio, United States

Public forecast

Using degrees Fahrenheit for public forecast. Weather courtesy of forecast.io.

METAR (pilot weather report)

Closest report is Bellefontaine Regional Airport, 14.7 nm (27.2 km) NNW. Retrieved 2019/05/22 05:15 UTC (0 seconds ago):

KEDJ 220515Z AUTO 13010G15KT 10SM CLR 11/05 A3005 RMK AO1

TAF (pilot weather forecast)

Closest forecast is Wright-Patterson Air Force Base, 22.9 nm (42.3 km) SW. Retrieved 2019/05/22 03:21 UTC (2 hours ago):

TAF KFFO 220300Z 2203/2309 10009KT 9999 SCT085 QNH2988INS BECMG 2210/2211 14009KT 8000 -SHRA BKN050 QNH2991INS BECMG 2215/2216 18012G20KT 9999 NSW SCT060 QNH2991INS BECMG 2219/2220 23009KT 9000 -SHRA BKN030 QNH2991INS TEMPO 2221/2224 23015G25KT 4800 -TSRA OVC020CB BECMG 2223/2224 VRB06KT 8000 BR SCT026 QNH2994INS TX27/2221Z TN12/2203Z